Terminal Aerodrome Forecast
Issued by NWS Quad Cities IA IL

Home | Current Version | Previous Version | Text Only | Print | Product List | Glossary On
Versions: 1 2 3 4 5 6 7 8 9 10 11 12 13 14 15 16 17 18
000
FTUS43 KDVN 232000 AAA
TAFMLI
TAF AMD
KMLI 232019Z 2320/2418 11008KT P6SM BKN100
      TEMPO 2320/2322 -RA SCT060
     FM240200 14013KT P6SM VCSH OVC080
     FM241200 15019G25KT P6SM VCSH OVC080
     FM241500 16017G25KT 5SM -RA OVC050=

USA.gov is the U.S. government's official web portal to all federal, state and local government web resources and services.